Date,TemperatureHighF,TemperatureAvgF,TemperatureLowF,DewpointHighF,DewpointAvgF,DewpointLowF,HumidityHigh,HumidityAvg,HumidityLow,PressureMaxIn,PressureMinIn,WindSpeedMaxMPH,WindSpeedAvgMPH,GustSpeedMaxMPH,PrecipitationSumIn
2013-3-3,84.5,44.0,36.9,32.9,29.7,27.0,75,58,45,30.13,29.98,22,6,24,0.00
2013-3-4,46.2,41.9,33.8,35.1,33.3,30.0,93,72,61,30.21,30.13,8,0,9,0.00
2013-3-5,76.3,59.7,39.6,56.2,43.4,33.6,93,59,28,30.16,29.98,18,5,18,0.00
2013-3-6,65.2,57.3,45.7,60.2,38.8,24.9,90,54,23,30.12,29.90,28,11,28,0.00
2013-3-7,69.8,52.2,38.3,41.6,34.5,30.3,79,54,25,30.21,30.11,11,1,14,0.00
2013-3-8,78.1,56.1,38.3,47.0,38.2,29.5,97,61,17,30.21,30.09,12,1,12,0.00
2013-3-9,76.7,59.6,44.1,51.2,46.0,40.9,97,66,30,30.22,30.12,14,2,14,0.00
2013-3-10,80.3,65.6,54.2,54.7,52.1,48.2,91,65,34,30.17,30.05,17,1,17,0.00
2013-3-11,77.9,67.1,55.1,58.7,54.9,51.6,90,67,45,30.10,29.87,14,2,16,0.00
2013-3-12,71.1,65.3,55.7,65.4,59.8,52.5,94,83,70,30.02,29.83,17,6,18,0.10
2013-3-13,76.1,59.4,44.8,52.7,39.6,27.1,91,57,17,30.16,30.01,14,3,16,0.00
2013-3-14,69.3,54.9,45.2,42.5,32.8,24.6,82,48,19,30.26,30.14,11,2,13,0.00
2013-3-15,73.7,54.4,37.2,47.1,36.2,26.0,97,59,21,30.28,30.12,10,1,10,0.00
2013-3-16,80.5,60.2,43.3,50.3,41.3,35.4,97,58,20,30.17,30.01,16,2,16,0.00
2013-3-17,76.3,62.4,47.4,60.3,50.3,42.6,96,68,38,30.12,29.97,17,2,17,0.01
2013-3-18,78.8,69.8,61.0,63.7,60.5,57.2,90,73,54,30.04,29.88,16,3,18,0.04
2013-3-19,86.5,72.2,62.0,63.9,59.8,53.4,96,69,34,30.01,29.87,12,1,12,0.00
2013-3-20,75.1,66.9,58.3,64.8,59.2,50.9,94,77,59,29.96,29.77,9,2,12,0.09
2013-3-21,72.0,57.7,45.4,56.6,41.2,24.2,95,62,18,29.96,29.85,14,2,14,0.01
2013-3-22,79.9,59.5,42.9,61.7,46.7,38.7,93,68,29,30.00,29.87,12,1,13,0.14
2013-3-23,85.3,72.4,62.3,70.4,64.5,59.6,95,78,51,29.97,29.75,20,3,20,0.14
2013-3-24,81.4,72.6,65.6,71.1,66.8,62.3,92,82,66,29.82,29.60,27,7,33,0.47
2013-3-25,71.3,64.0,55.9,63.4,46.7,26.9,91,59,20,29.91,29.70,19,8,20,0.00
2013-3-28,64.5,52.4,51.7,42.1,41.8,37.6,69,67,66,30.26,29.89,8,0,12,0.00
2013-3-29,75.6,56.6,41.3,50.8,39.1,30.0,97,61,19,30.31,30.17,7,0,7,0.00
2013-3-30,79.6,57.7,45.5,53.3,44.4,38.4,97,66,29,30.24,30.08,12,1,16,0.01
2013-3-31,83.4,67.1,56.0,55.4,50.5,43.4,82,59,27,30.16,29.97,20,4,20,0.00